Time;durP1;ratioP1;P1;durP2;ratioP2;P2;SDS_P1;SDS_P2;PMS_P1;PMS_P2;Temp;Humidity;BMP_temperature;BMP_pressure;BME280_temperature;BME280_humidity;BME280_pressure;Samples;Min_cycle;Max_cycle;Signal;HPM_P1;HPM_P2
2022/03/10 00:00:16;;;;;;;6.750001;3.35;;;;;;;-2.34;34.3916;95866.92;;;;
2022/03/10 00:01:17;;;;;;;6.750001;3.35;;;;;;;-2.34;34.3916;95866.92;;;;
2022/03/10 00:02:18;;;;;;;6.750001;3.35;;;;;;;-2.34;34.3916;95866.92;;;;
2022/03/10 00:03:18;;;;;;;6.750001;3.35;;;;;;;-2.34;34.3916;95866.92;;;;
2022/03/10 00:04:19;;;;;;;6.750001;3.35;;;;;;;-2.34;34.3916;95866.92;;;;
2022/03/10 00:05:19;;;;;;;6.750001;3.35;;;;;;;-2.34;34.3916;95866.92;;;;
2022/03/10 00:06:20;;;;;;;6.750001;3.35;;;;;;;-2.34;34.3916;95866.92;;;;
2022/03/10 00:07:20;;;;;;;6.599999;3.4;;;;;;;-2.34;34.56055;95872.63;;;;
2022/03/10 00:08:21;;;;;;;6.599999;3.4;;;;;;;-2.34;34.56055;95872.63;;;;
2022/03/10 00:09:21;;;;;;;6.599999;3.4;;;;;;;-2.34;34.56055;95872.63;;;;
2022/03/10 00:10:22;;;;;;;6.599999;3.4;;;;;;;-2.34;34.56055;95872.63;;;;
2022/03/10 00:11:22;;;;;;;6.599999;3.4;;;;;;;-2.34;34.56055;95872.63;;;;
2022/03/10 00:12:22;;;;;;;6.599999;3.4;;;;;;;-2.34;34.56055;95872.63;;;;
2022/03/10 00:13:26;;;;;;;6.599999;3.4;;;;;;;-2.34;34.56055;95872.63;;;;
2022/03/10 00:14:27;;;;;;;6.599999;3.4;;;;;;;-2.34;34.56055;95872.63;;;;
2022/03/10 00:15:28;;;;;;;6.599999;3.4;;;;;;;-2.34;34.56055;95872.63;;;;
2022/03/10 00:16:29;;;;;;;6.599999;3.4;;;;;;;-2.34;34.56055;95872.63;;;;
2022/03/10 00:17:29;;;;;;;8.950001;4.3;;;;;;;-2.35;34.67578;95875.81;;;;
2022/03/10 00:18:30;;;;;;;8.950001;4.3;;;;;;;-2.35;34.67578;95875.81;;;;
2022/03/10 00:19:31;;;;;;;8.950001;4.3;;;;;;;-2.35;34.67578;95875.81;;;;
2022/03/10 00:20:31;;;;;;;8.950001;4.3;;;;;;;-2.35;34.67578;95875.81;;;;
2022/03/10 00:21:32;;;;;;;8.950001;4.3;;;;;;;-2.35;34.67578;95875.81;;;;
2022/03/10 00:22:32;;;;;;;8.950001;4.3;;;;;;;-2.35;34.67578;95875.81;;;;
2022/03/10 00:23:43;;;;;;;8.950001;4.3;;;;;;;-2.35;34.67578;95875.81;;;;
2022/03/10 00:24:43;;;;;;;8.950001;4.3;;;;;;;-2.35;34.67578;95875.81;;;;
2022/03/10 00:25:43;;;;;;;8.950001;4.3;;;;;;;-2.35;34.67578;95875.81;;;;
2022/03/10 00:26:44;;;;;;;8.950001;4.3;;;;;;;-2.35;34.67578;95875.81;;;;
2022/03/10 00:27:46;;;;;;;8.950001;4.3;;;;;;;-2.35;34.67578;95875.81;;;;
2022/03/10 00:28:47;;;;;;;14.2;4.849999;;;;;;;-2.41;34.85938;95881.27;;;;
2022/03/10 00:29:48;;;;;;;14.2;4.849999;;;;;;;-2.41;34.85938;95881.27;;;;
2022/03/10 00:30:48;;;;;;;14.2;4.849999;;;;;;;-2.41;34.85938;95881.27;;;;
2022/03/10 00:31:49;;;;;;;14.2;4.849999;;;;;;;-2.41;34.85938;95881.27;;;;
2022/03/10 00:32:49;;;;;;;14.2;4.849999;;;;;;;-2.41;34.85938;95881.27;;;;
2022/03/10 00:33:51;;;;;;;14.2;4.849999;;;;;;;-2.41;34.85938;95881.27;;;;
2022/03/10 00:34:52;;;;;;;14.2;4.849999;;;;;;;-2.41;34.85938;95881.27;;;;
2022/03/10 00:35:52;;;;;;;14.2;4.849999;;;;;;;-2.41;34.85938;95881.27;;;;
2022/03/10 00:36:53;;;;;;;14.2;4.849999;;;;;;;-2.41;34.85938;95881.27;;;;
2022/03/10 00:37:53;;;;;;;14.2;4.849999;;;;;;;-2.41;34.85938;95881.27;;;;
2022/03/10 00:38:54;;;;;;;8.05;4.299999;;;;;;;-2.48;35.02051;95884.14;;;;
2022/03/10 00:39:55;;;;;;;8.05;4.299999;;;;;;;-2.48;35.02051;95884.14;;;;
2022/03/10 00:40:55;;;;;;;8.05;4.299999;;;;;;;-2.48;35.02051;95884.14;;;;
2022/03/10 00:41:56;;;;;;;8.05;4.299999;;;;;;;-2.48;35.02051;95884.14;;;;
2022/03/10 00:42:57;;;;;;;8.05;4.299999;;;;;;;-2.48;35.02051;95884.14;;;;
2022/03/10 00:43:57;;;;;;;8.05;4.299999;;;;;;;-2.48;35.02051;95884.14;;;;
2022/03/10 00:44:57;;;;;;;8.05;4.299999;;;;;;;-2.48;35.02051;95884.14;;;;
2022/03/10 00:45:58;;;;;;;8.05;4.299999;;;;;;;-2.48;35.02051;95884.14;;;;
2022/03/10 00:46:58;;;;;;;8.05;4.299999;;;;;;;-2.48;35.02051;95884.14;;;;
2022/03/10 00:47:59;;;;;;;8.05;4.299999;;;;;;;-2.48;35.02051;95884.14;;;;
2022/03/10 00:48:59;;;;;;;8.05;4.299999;;;;;;;-2.48;35.02051;95884.14;;;;
2022/03/10 00:50:00;;;;;;;6.5;3.7;;;;;;;-2.57;35.18164;95886.72;;;;
2022/03/10 00:51:01;;;;;;;6.5;3.7;;;;;;;-2.57;35.18164;95886.72;;;;
2022/03/10 00:52:02;;;;;;;6.5;3.7;;;;;;;-2.57;35.18164;95886.72;;;;
2022/03/10 00:53:03;;;;;;;6.5;3.7;;;;;;;-2.57;35.18164;95886.72;;;;
2022/03/10 00:54:03;;;;;;;6.5;3.7;;;;;;;-2.57;35.18164;95886.72;;;;
2022/03/10 00:55:04;;;;;;;6.5;3.7;;;;;;;-2.57;35.18164;95886.72;;;;
2022/03/10 00:56:06;;;;;;;6.5;3.7;;;;;;;-2.57;35.18164;95886.72;;;;
2022/03/10 00:57:06;;;;;;;6.5;3.7;;;;;;;-2.57;35.18164;95886.72;;;;
2022/03/10 00:58:07;;;;;;;6.5;3.7;;;;;;;-2.57;35.18164;95886.72;;;;
2022/03/10 00:59:07;;;;;;;6.5;3.7;;;;;;;-2.57;35.18164;95886.72;;;;
2022/03/10 01:00:08;;;;;;;5.650001;3.65;;;;;;;-2.73;35.38867;95881.58;;;;
2022/03/10 01:01:10;;;;;;;5.650001;3.65;;;;;;;-2.73;35.38867;95881.58;;;;
2022/03/10 01:02:10;;;;;;;5.650001;3.65;;;;;;;-2.73;35.38867;95881.58;;;;
2022/03/10 01:03:11;;;;;;;5.650001;3.65;;;;;;;-2.73;35.38867;95881.58;;;;
2022/03/10 01:04:11;;;;;;;5.650001;3.65;;;;;;;-2.73;35.38867;95881.58;;;;
2022/03/10 01:05:12;;;;;;;5.650001;3.65;;;;;;;-2.73;35.38867;95881.58;;;;
2022/03/10 01:06:12;;;;;;;5.650001;3.65;;;;;;;-2.73;35.38867;95881.58;;;;
2022/03/10 01:07:13;;;;;;;5.650001;3.65;;;;;;;-2.73;35.38867;95881.58;;;;
2022/03/10 01:08:13;;;;;;;5.650001;3.65;;;;;;;-2.73;35.38867;95881.58;;;;
2022/03/10 01:09:14;;;;;;;5.650001;3.65;;;;;;;-2.73;35.38867;95881.58;;;;
2022/03/10 01:10:14;;;;;;;5.650001;3.65;;;;;;;-2.73;35.38867;95881.58;;;;
2022/03/10 01:11:17;;;;;;;9.2;4.450001;;;;;;;-2.87;35.66992;95876.73;;;;
2022/03/10 01:12:17;;;;;;;9.2;4.450001;;;;;;;-2.87;35.66992;95876.73;;;;
2022/03/10 01:13:18;;;;;;;9.2;4.450001;;;;;;;-2.87;35.66992;95876.73;;;;
2022/03/10 01:14:19;;;;;;;9.2;4.450001;;;;;;;-2.87;35.66992;95876.73;;;;
2022/03/10 01:15:19;;;;;;;9.2;4.450001;;;;;;;-2.87;35.66992;95876.73;;;;
2022/03/10 01:16:22;;;;;;;9.2;4.450001;;;;;;;-2.87;35.66992;95876.73;;;;
2022/03/10 01:17:23;;;;;;;9.2;4.450001;;;;;;;-2.87;35.66992;95876.73;;;;
2022/03/10 01:18:24;;;;;;;9.2;4.450001;;;;;;;-2.87;35.66992;95876.73;;;;
2022/03/10 01:19:24;;;;;;;9.2;4.450001;;;;;;;-2.87;35.66992;95876.73;;;;
2022/03/10 01:20:25;;;;;;;9.2;4.450001;;;;;;;-2.87;35.66992;95876.73;;;;
2022/03/10 01:21:25;;;;;;;9.55;4.45;;;;;;;-2.95;35.88379;95884.53;;;;
2022/03/10 01:22:26;;;;;;;9.55;4.45;;;;;;;-2.95;35.88379;95884.53;;;;
2022/03/10 01:23:26;;;;;;;9.55;4.45;;;;;;;-2.95;35.88379;95884.53;;;;
2022/03/10 01:24:27;;;;;;;9.55;4.45;;;;;;;-2.95;35.88379;95884.53;;;;
2022/03/10 01:25:27;;;;;;;9.55;4.45;;;;;;;-2.95;35.88379;95884.53;;;;
2022/03/10 01:26:28;;;;;;;9.55;4.45;;;;;;;-2.95;35.88379;95884.53;;;;
2022/03/10 01:27:28;;;;;;;9.55;4.45;;;;;;;-2.95;35.88379;95884.53;;;;
2022/03/10 01:28:29;;;;;;;9.55;4.45;;;;;;;-2.95;35.88379;95884.53;;;;
2022/03/10 01:29:29;;;;;;;9.55;4.45;;;;;;;-2.95;35.88379;95884.53;;;;
2022/03/10 01:30:30;;;;;;;9.55;4.45;;;;;;;-2.95;35.88379;95884.53;;;;
2022/03/10 01:31:31;;;;;;;9.55;4.45;;;;;;;-2.95;35.88379;95884.53;;;;
2022/03/10 01:32:31;;;;;;;7.049999;3.95;;;;;;;-2.96;36.04004;95883.69;;;;
2022/03/10 01:33:33;;;;;;;7.049999;3.95;;;;;;;-2.96;36.04004;95883.69;;;;
2022/03/10 01:34:33;;;;;;;7.049999;3.95;;;;;;;-2.96;36.04004;95883.69;;;;
2022/03/10 01:35:34;;;;;;;7.049999;3.95;;;;;;;-2.96;36.04004;95883.69;;;;
2022/03/10 01:36:34;;;;;;;7.049999;3.95;;;;;;;-2.96;36.04004;95883.69;;;;
2022/03/10 01:37:37;;;;;;;7.049999;3.95;;;;;;;-2.96;36.04004;95883.69;;;;
2022/03/10 01:38:39;;;;;;;7.049999;3.95;;;;;;;-2.96;36.04004;95883.69;;;;
2022/03/10 01:39:40;;;;;;;7.049999;3.95;;;;;;;-2.96;36.04004;95883.69;;;;
2022/03/10 01:40:40;;;;;;;7.049999;3.95;;;;;;;-2.96;36.04004;95883.69;;;;
2022/03/10 01:41:41;;;;;;;7.049999;3.95;;;;;;;-2.96;36.04004;95883.69;;;;
2022/03/10 01:42:41;;;;;;;7.8;4.2;;;;;;;-2.98;36.12305;95877.29;;;;
2022/03/10 01:43:42;;;;;;;7.8;4.2;;;;;;;-2.98;36.12305;95877.29;;;;
2022/03/10 01:45:00;;;;;;;7.8;4.2;;;;;;;-2.98;36.12305;95877.29;;;;
2022/03/10 01:46:02;;;;;;;7.8;4.2;;;;;;;-2.98;36.12305;95877.29;;;;
2022/03/10 01:47:02;;;;;;;7.8;4.2;;;;;;;-2.98;36.12305;95877.29;;;;
2022/03/10 01:48:04;;;;;;;7.8;4.2;;;;;;;-2.98;36.12305;95877.29;;;;
2022/03/10 01:49:05;;;;;;;7.8;4.2;;;;;;;-2.98;36.12305;95877.29;;;;
2022/03/10 01:50:06;;;;;;;7.8;4.2;;;;;;;-2.98;36.12305;95877.29;;;;
2022/03/10 01:51:09;;;;;;;7.8;4.2;;;;;;;-2.98;36.12305;95877.29;;;;
2022/03/10 01:52:09;;;;;;;7.8;4.2;;;;;;;-2.98;36.12305;95877.29;;;;
2022/03/10 01:53:10;;;;;;;7.8;4.2;;;;;;;-2.98;36.12305;95877.29;;;;
2022/03/10 01:54:10;;;;;;;8.1;4.7;;;;;;;-3.06;36.34668;95869.24;;;;
2022/03/10 01:55:11;;;;;;;8.1;4.7;;;;;;;-3.06;36.34668;95869.24;;;;
2022/03/10 01:56:11;;;;;;;8.1;4.7;;;;;;;-3.06;36.34668;95869.24;;;;
2022/03/10 01:57:12;;;;;;;8.1;4.7;;;;;;;-3.06;36.34668;95869.24;;;;
2022/03/10 01:58:13;;;;;;;8.1;4.7;;;;;;;-3.06;36.34668;95869.24;;;;
2022/03/10 01:59:13;;;;;;;8.1;4.7;;;;;;;-3.06;36.34668;95869.24;;;;
2022/03/10 02:00:15;;;;;;;8.1;4.7;;;;;;;-3.06;36.34668;95869.24;;;;
2022/03/10 02:01:16;;;;;;;8.1;4.7;;;;;;;-3.06;36.34668;95869.24;;;;
2022/03/10 02:02:18;;;;;;;8.1;4.7;;;;;;;-3.06;36.34668;95869.24;;;;
2022/03/10 02:03:18;;;;;;;8.1;4.7;;;;;;;-3.06;36.34668;95869.24;;;;
2022/03/10 02:04:19;;;;;;;8.150001;5.35;;;;;;;-3.21;36.57422;95860.06;;;;
2022/03/10 02:05:20;;;;;;;8.150001;5.35;;;;;;;-3.21;36.57422;95860.06;;;;
2022/03/10 02:06:20;;;;;;;8.150001;5.35;;;;;;;-3.21;36.57422;95860.06;;;;
2022/03/10 02:12:37;;;;;;;8.150001;5.35;;;;;;;-3.21;36.57422;95860.06;;;;
2022/03/10 02:13:37;;;;;;;8.150001;5.35;;;;;;;-3.21;36.57422;95860.06;;;;
2022/03/10 02:19:50;;;;;;;8.150001;5.35;;;;;;;-3.21;36.57422;95860.06;;;;
2022/03/10 02:20:53;;;;;;;8.150001;5.35;;;;;;;-3.21;36.57422;95860.06;;;;
2022/03/10 02:21:53;;;;;;;8.150001;5.35;;;;;;;-3.21;36.57422;95860.06;;;;
2022/03/10 02:22:54;;;;;;;8.150001;5.35;;;;;;;-3.21;36.57422;95860.06;;;;
2022/03/10 02:23:55;;;;;;;8.150001;5.35;;;;;;;-3.21;36.57422;95860.06;;;;
2022/03/10 02:24:56;;;;;;;8.150001;5.35;;;;;;;-3.21;36.57422;95860.06;;;;
2022/03/10 02:25:58;;;;;;;8.299999;5.25;;;;;;;-3.42;38.83789;95863.31;;;;
2022/03/10 02:26:59;;;;;;;8.299999;5.25;;;;;;;-3.42;38.83789;95863.31;;;;
2022/03/10 02:27:59;;;;;;;8.299999;5.25;;;;;;;-3.42;38.83789;95863.31;;;;
2022/03/10 02:29:00;;;;;;;8.299999;5.25;;;;;;;-3.42;38.83789;95863.31;;;;
2022/03/10 02:30:01;;;;;;;8.299999;5.25;;;;;;;-3.42;38.83789;95863.31;;;;
2022/03/10 02:31:03;;;;;;;8.299999;5.25;;;;;;;-3.42;38.83789;95863.31;;;;
2022/03/10 02:32:03;;;;;;;8.299999;5.25;;;;;;;-3.42;38.83789;95863.31;;;;
2022/03/10 02:33:04;;;;;;;8.299999;5.25;;;;;;;-3.42;38.83789;95863.31;;;;
2022/03/10 02:34:05;;;;;;;8.299999;5.25;;;;;;;-3.42;38.83789;95863.31;;;;
2022/03/10 02:35:08;;;;;;;8.299999;5.25;;;;;;;-3.42;38.83789;95863.31;;;;
2022/03/10 02:36:09;;;;;;;7.449999;5.299999;;;;;;;-3.49;39.61621;95864.83;;;;
2022/03/10 02:37:09;;;;;;;7.449999;5.299999;;;;;;;-3.49;39.61621;95864.83;;;;
2022/03/10 02:38:11;;;;;;;7.449999;5.299999;;;;;;;-3.49;39.61621;95864.83;;;;
2022/03/10 02:39:14;;;;;;;7.449999;5.299999;;;;;;;-3.49;39.61621;95864.83;;;;
2022/03/10 02:40:15;;;;;;;7.449999;5.299999;;;;;;;-3.49;39.61621;95864.83;;;;
2022/03/10 02:41:15;;;;;;;7.449999;5.299999;;;;;;;-3.49;39.61621;95864.83;;;;
2022/03/10 02:42:16;;;;;;;7.449999;5.299999;;;;;;;-3.49;39.61621;95864.83;;;;
2022/03/10 02:43:16;;;;;;;7.449999;5.299999;;;;;;;-3.49;39.61621;95864.83;;;;
2022/03/10 02:44:18;;;;;;;7.449999;5.299999;;;;;;;-3.49;39.61621;95864.83;;;;
2022/03/10 02:45:19;;;;;;;7.449999;5.299999;;;;;;;-3.49;39.61621;95864.83;;;;
2022/03/10 02:46:19;;;;;;;7.449999;5.299999;;;;;;;-3.49;39.61621;95864.83;;;;
2022/03/10 02:47:20;;;;;;;8.199999;5.3;;;;;;;-3.57;40.29785;95870.36;;;;
2022/03/10 02:48:20;;;;;;;8.199999;5.3;;;;;;;-3.57;40.29785;95870.36;;;;
2022/03/10 02:49:21;;;;;;;8.199999;5.3;;;;;;;-3.57;40.29785;95870.36;;;;
2022/03/10 02:50:22;;;;;;;8.199999;5.3;;;;;;;-3.57;40.29785;95870.36;;;;
2022/03/10 02:51:23;;;;;;;8.199999;5.3;;;;;;;-3.57;40.29785;95870.36;;;;
2022/03/10 02:52:23;;;;;;;8.199999;5.3;;;;;;;-3.57;40.29785;95870.36;;;;
2022/03/10 02:53:24;;;;;;;8.199999;5.3;;;;;;;-3.57;40.29785;95870.36;;;;
2022/03/10 02:54:24;;;;;;;8.199999;5.3;;;;;;;-3.57;40.29785;95870.36;;;;
2022/03/10 02:55:25;;;;;;;8.199999;5.3;;;;;;;-3.57;40.29785;95870.36;;;;
2022/03/10 02:56:25;;;;;;;8.199999;5.3;;;;;;;-3.57;40.29785;95870.36;;;;
2022/03/10 02:57:28;;;;;;;6.4;5.15;;;;;;;-3.66;40.89551;95870.76;;;;
2022/03/10 02:58:28;;;;;;;6.4;5.15;;;;;;;-3.66;40.89551;95870.76;;;;
2022/03/10 02:59:29;;;;;;;6.4;5.15;;;;;;;-3.66;40.89551;95870.76;;;;
2022/03/10 03:00:29;;;;;;;6.4;5.15;;;;;;;-3.66;40.89551;95870.76;;;;
2022/03/10 03:01:30;;;;;;;6.4;5.15;;;;;;;-3.66;40.89551;95870.76;;;;
2022/03/10 03:02:31;;;;;;;6.4;5.15;;;;;;;-3.66;40.89551;95870.76;;;;
2022/03/10 03:03:33;;;;;;;6.4;5.15;;;;;;;-3.66;40.89551;95870.76;;;;
2022/03/10 03:04:33;;;;;;;6.4;5.15;;;;;;;-3.66;40.89551;95870.76;;;;
2022/03/10 03:05:34;;;;;;;6.4;5.15;;;;;;;-3.66;40.89551;95870.76;;;;
2022/03/10 03:06:34;;;;;;;6.4;5.15;;;;;;;-3.66;40.89551;95870.76;;;;
2022/03/10 03:07:35;;;;;;;6.4;5.15;;;;;;;-3.66;40.89551;95870.76;;;;
2022/03/10 03:08:35;;;;;;;7.75;5.349999;;;;;;;-3.75;41.39941;95879.91;;;;
2022/03/10 03:09:36;;;;;;;7.75;5.349999;;;;;;;-3.75;41.39941;95879.91;;;;
2022/03/10 03:10:36;;;;;;;7.75;5.349999;;;;;;;-3.75;41.39941;95879.91;;;;
2022/03/10 03:11:37;;;;;;;7.75;5.349999;;;;;;;-3.75;41.39941;95879.91;;;;
2022/03/10 03:12:37;;;;;;;7.75;5.349999;;;;;;;-3.75;41.39941;95879.91;;;;
2022/03/10 03:13:43;;;;;;;7.75;5.349999;;;;;;;-3.75;41.39941;95879.91;;;;
2022/03/10 03:14:43;;;;;;;7.75;5.349999;;;;;;;-3.75;41.39941;95879.91;;;;
2022/03/10 03:15:44;;;;;;;7.75;5.349999;;;;;;;-3.75;41.39941;95879.91;;;;
2022/03/10 03:16:44;;;;;;;7.75;5.349999;;;;;;;-3.75;41.39941;95879.91;;;;
2022/03/10 03:17:45;;;;;;;7.75;5.349999;;;;;;;-3.75;41.39941;95879.91;;;;
2022/03/10 03:18:46;;;;;;;7.5;5.65;;;;;;;-3.84;41.93359;95898.69;;;;
2022/03/10 03:19:46;;;;;;;7.5;5.65;;;;;;;-3.84;41.93359;95898.69;;;;
2022/03/10 03:20:47;;;;;;;7.5;5.65;;;;;;;-3.84;41.93359;95898.69;;;;
2022/03/10 03:21:48;;;;;;;7.5;5.65;;;;;;;-3.84;41.93359;95898.69;;;;
2022/03/10 03:22:49;;;;;;;7.5;5.65;;;;;;;-3.84;41.93359;95898.69;;;;
2022/03/10 03:23:49;;;;;;;7.5;5.65;;;;;;;-3.84;41.93359;95898.69;;;;
2022/03/10 03:24:50;;;;;;;7.5;5.65;;;;;;;-3.84;41.93359;95898.69;;;;
2022/03/10 03:25:50;;;;;;;7.5;5.65;;;;;;;-3.84;41.93359;95898.69;;;;
2022/03/10 03:26:52;;;;;;;7.5;5.65;;;;;;;-3.84;41.93359;95898.69;;;;
2022/03/10 03:27:52;;;;;;;7.5;5.65;;;;;;;-3.84;41.93359;95898.69;;;;
2022/03/10 03:28:53;;;;;;;7.5;5.65;;;;;;;-3.84;41.93359;95898.69;;;;
2022/03/10 03:29:53;;;;;;;7.05;5.299999;;;;;;;-3.93;42.4043;95910.52;;;;
2022/03/10 03:30:54;;;;;;;7.05;5.299999;;;;;;;-3.93;42.4043;95910.52;;;;
2022/03/10 03:31:54;;;;;;;7.05;5.299999;;;;;;;-3.93;42.4043;95910.52;;;;
2022/03/10 03:32:55;;;;;;;7.05;5.299999;;;;;;;-3.93;42.4043;95910.52;;;;
2022/03/10 03:33:55;;;;;;;7.05;5.299999;;;;;;;-3.93;42.4043;95910.52;;;;
2022/03/10 03:34:56;;;;;;;7.05;5.299999;;;;;;;-3.93;42.4043;95910.52;;;;
2022/03/10 03:35:56;;;;;;;7.05;5.299999;;;;;;;-3.93;42.4043;95910.52;;;;
2022/03/10 03:36:57;;;;;;;7.05;5.299999;;;;;;;-3.93;42.4043;95910.52;;;;
2022/03/10 03:37:58;;;;;;;7.05;5.299999;;;;;;;-3.93;42.4043;95910.52;;;;
2022/03/10 03:38:58;;;;;;;7.05;5.299999;;;;;;;-3.93;42.4043;95910.52;;;;
2022/03/10 03:39:59;;;;;;;7.349999;5.400001;;;;;;;-4.05;42.91406;95922.55;;;;
2022/03/10 03:40:59;;;;;;;7.349999;5.400001;;;;;;;-4.05;42.91406;95922.55;;;;
2022/03/10 03:42:00;;;;;;;7.349999;5.400001;;;;;;;-4.05;42.91406;95922.55;;;;
2022/03/10 03:43:00;;;;;;;7.349999;5.400001;;;;;;;-4.05;42.91406;95922.55;;;;
2022/03/10 03:44:01;;;;;;;7.349999;5.400001;;;;;;;-4.05;42.91406;95922.55;;;;
2022/03/10 03:45:02;;;;;;;7.349999;5.400001;;;;;;;-4.05;42.91406;95922.55;;;;
2022/03/10 03:46:04;;;;;;;7.349999;5.400001;;;;;;;-4.05;42.91406;95922.55;;;;
2022/03/10 03:47:04;;;;;;;7.349999;5.400001;;;;;;;-4.05;42.91406;95922.55;;;;
2022/03/10 03:48:04;;;;;;;7.349999;5.400001;;;;;;;-4.05;42.91406;95922.55;;;;
2022/03/10 03:49:05;;;;;;;7.349999;5.400001;;;;;;;-4.05;42.91406;95922.55;;;;
2022/03/10 03:50:06;;;;;;;7.349999;5.400001;;;;;;;-4.05;42.91406;95922.55;;;;
2022/03/10 03:51:08;;;;;;;6.7;5.55;;;;;;;-4.16;43.39355;95925.27;;;;
2022/03/10 03:52:09;;;;;;;6.7;5.55;;;;;;;-4.16;43.39355;95925.27;;;;
2022/03/10 03:53:09;;;;;;;6.7;5.55;;;;;;;-4.16;43.39355;95925.27;;;;
2022/03/10 03:54:10;;;;;;;6.7;5.55;;;;;;;-4.16;43.39355;95925.27;;;;
2022/03/10 03:55:10;;;;;;;6.7;5.55;;;;;;;-4.16;43.39355;95925.27;;;;
2022/03/10 03:56:12;;;;;;;6.7;5.55;;;;;;;-4.16;43.39355;95925.27;;;;
2022/03/10 03:57:13;;;;;;;6.7;5.55;;;;;;;-4.16;43.39355;95925.27;;;;
2022/03/10 03:58:13;;;;;;;6.7;5.55;;;;;;;-4.16;43.39355;95925.27;;;;
2022/03/10 03:59:14;;;;;;;6.7;5.55;;;;;;;-4.16;43.39355;95925.27;;;;
2022/03/10 04:00:15;;;;;;;6.7;5.55;;;;;;;-4.16;43.39355;95925.27;;;;
2022/03/10 04:01:16;;;;;;;8.049999;5.85;;;;;;;-4.26;43.82129;95942.39;;;;
2022/03/10 04:02:17;;;;;;;8.049999;5.85;;;;;;;-4.26;43.82129;95942.39;;;;
2022/03/10 04:03:17;;;;;;;8.049999;5.85;;;;;;;-4.26;43.82129;95942.39;;;;
2022/03/10 04:04:19;;;;;;;8.049999;5.85;;;;;;;-4.26;43.82129;95942.39;;;;
2022/03/10 04:05:20;;;;;;;8.049999;5.85;;;;;;;-4.26;43.82129;95942.39;;;;
2022/03/10 04:06:20;;;;;;;8.049999;5.85;;;;;;;-4.26;43.82129;95942.39;;;;
2022/03/10 04:07:22;;;;;;;8.049999;5.85;;;;;;;-4.26;43.82129;95942.39;;;;
2022/03/10 04:08:23;;;;;;;8.049999;5.85;;;;;;;-4.26;43.82129;95942.39;;;;
2022/03/10 04:09:23;;;;;;;8.049999;5.85;;;;;;;-4.26;43.82129;95942.39;;;;
2022/03/10 04:10:24;;;;;;;8.049999;5.85;;;;;;;-4.26;43.82129;95942.39;;;;
2022/03/10 04:11:25;;;;;;;8.049999;5.85;;;;;;;-4.26;43.82129;95942.39;;;;
2022/03/10 04:12:25;;;;;;;9.95;5.849999;;;;;;;-4.34;44.24023;95949.66;;;;
2022/03/10 04:13:26;;;;;;;9.95;5.849999;;;;;;;-4.34;44.24023;95949.66;;;;
2022/03/10 04:14:27;;;;;;;9.95;5.849999;;;;;;;-4.34;44.24023;95949.66;;;;
2022/03/10 04:15:27;;;;;;;9.95;5.849999;;;;;;;-4.34;44.24023;95949.66;;;;
2022/03/10 04:16:28;;;;;;;9.95;5.849999;;;;;;;-4.34;44.24023;95949.66;;;;
2022/03/10 04:17:28;;;;;;;9.95;5.849999;;;;;;;-4.34;44.24023;95949.66;;;;
2022/03/10 04:18:29;;;;;;;9.95;5.849999;;;;;;;-4.34;44.24023;95949.66;;;;
2022/03/10 04:19:30;;;;;;;9.95;5.849999;;;;;;;-4.34;44.24023;95949.66;;;;
2022/03/10 04:20:30;;;;;;;9.95;5.849999;;;;;;;-4.34;44.24023;95949.66;;;;
2022/03/10 04:21:31;;;;;;;9.95;5.849999;;;;;;;-4.34;44.24023;95949.66;;;;
2022/03/10 04:22:32;;;;;;;9.95;5.849999;;;;;;;-4.34;44.24023;95949.66;;;;
2022/03/10 04:23:32;;;;;;;9.100002;5.65;;;;;;;-4.4;44.64063;95962.45;;;;
2022/03/10 04:24:34;;;;;;;9.100002;5.65;;;;;;;-4.4;44.64063;95962.45;;;;
2022/03/10 04:25:34;;;;;;;9.100002;5.65;;;;;;;-4.4;44.64063;95962.45;;;;
2022/03/10 04:26:35;;;;;;;9.100002;5.65;;;;;;;-4.4;44.64063;95962.45;;;;
2022/03/10 04:27:35;;;;;;;9.100002;5.65;;;;;;;-4.4;44.64063;95962.45;;;;
2022/03/10 04:28:36;;;;;;;9.100002;5.65;;;;;;;-4.4;44.64063;95962.45;;;;
2022/03/10 04:29:37;;;;;;;9.100002;5.65;;;;;;;-4.4;44.64063;95962.45;;;;
2022/03/10 04:30:38;;;;;;;9.100002;5.65;;;;;;;-4.4;44.64063;95962.45;;;;
2022/03/10 04:31:38;;;;;;;9.100002;5.65;;;;;;;-4.4;44.64063;95962.45;;;;
2022/03/10 04:32:39;;;;;;;9.100002;5.65;;;;;;;-4.4;44.64063;95962.45;;;;
2022/03/10 04:33:41;;;;;;;8.449998;6.050002;;;;;;;-4.45;45.05176;95960.27;;;;
2022/03/10 04:34:42;;;;;;;8.449998;6.050002;;;;;;;-4.45;45.05176;95960.27;;;;
2022/03/10 04:35:43;;;;;;;8.449998;6.050002;;;;;;;-4.45;45.05176;95960.27;;;;
2022/03/10 04:36:44;;;;;;;8.449998;6.050002;;;;;;;-4.45;45.05176;95960.27;;;;
2022/03/10 04:37:45;;;;;;;8.449998;6.050002;;;;;;;-4.45;45.05176;95960.27;;;;
2022/03/10 04:38:49;;;;;;;8.449998;6.050002;;;;;;;-4.45;45.05176;95960.27;;;;
2022/03/10 04:39:50;;;;;;;8.449998;6.050002;;;;;;;-4.45;45.05176;95960.27;;;;
2022/03/10 04:40:50;;;;;;;8.449998;6.050002;;;;;;;-4.45;45.05176;95960.27;;;;
2022/03/10 04:41:51;;;;;;;8.449998;6.050002;;;;;;;-4.45;45.05176;95960.27;;;;
2022/03/10 04:42:52;;;;;;;8.449998;6.050002;;;;;;;-4.45;45.05176;95960.27;;;;
2022/03/10 04:43:52;;;;;;;8.449998;6.050002;;;;;;;-4.45;45.05176;95960.27;;;;
2022/03/10 04:44:53;;;;;;;7.699999;5.75;;;;;;;-4.5;45.41113;95960.21;;;;
2022/03/10 04:45:53;;;;;;;7.699999;5.75;;;;;;;-4.5;45.41113;95960.21;;;;
2022/03/10 04:46:55;;;;;;;7.699999;5.75;;;;;;;-4.5;45.41113;95960.21;;;;
2022/03/10 04:47:55;;;;;;;7.699999;5.75;;;;;;;-4.5;45.41113;95960.21;;;;
2022/03/10 04:48:56;;;;;;;7.699999;5.75;;;;;;;-4.5;45.41113;95960.21;;;;
2022/03/10 04:49:57;;;;;;;7.699999;5.75;;;;;;;-4.5;45.41113;95960.21;;;;
2022/03/10 04:50:57;;;;;;;7.699999;5.75;;;;;;;-4.5;45.41113;95960.21;;;;
2022/03/10 04:51:58;;;;;;;7.699999;5.75;;;;;;;-4.5;45.41113;95960.21;;;;
2022/03/10 04:52:58;;;;;;;7.699999;5.75;;;;;;;-4.5;45.41113;95960.21;;;;
2022/03/10 04:53:59;;;;;;;7.699999;5.75;;;;;;;-4.5;45.41113;95960.21;;;;
2022/03/10 04:54:59;;;;;;;10;6.1;;;;;;;-4.51;45.64941;95959.92;;;;
2022/03/10 04:56:00;;;;;;;10;6.1;;;;;;;-4.51;45.64941;95959.92;;;;
2022/03/10 04:57:00;;;;;;;10;6.1;;;;;;;-4.51;45.64941;95959.92;;;;
2022/03/10 04:58:01;;;;;;;10;6.1;;;;;;;-4.51;45.64941;95959.92;;;;
2022/03/10 04:59:02;;;;;;;10;6.1;;;;;;;-4.51;45.64941;95959.92;;;;
2022/03/10 05:00:05;;;;;;;10;6.1;;;;;;;-4.51;45.64941;95959.92;;;;
2022/03/10 05:01:08;;;;;;;10;6.1;;;;;;;-4.51;45.64941;95959.92;;;;
2022/03/10 05:02:10;;;;;;;10;6.1;;;;;;;-4.51;45.64941;95959.92;;;;
2022/03/10 05:03:11;;;;;;;10;6.1;;;;;;;-4.51;45.64941;95959.92;;;;
2022/03/10 05:04:12;;;;;;;10;6.1;;;;;;;-4.51;45.64941;95959.92;;;;
2022/03/10 05:05:13;;;;;;;10;6.1;;;;;;;-4.51;45.64941;95959.92;;;;
2022/03/10 05:06:14;;;;;;;9.799998;6.200001;;;;;;;-4.56;45.94531;95958.15;;;;
2022/03/10 05:07:15;;;;;;;9.799998;6.200001;;;;;;;-4.56;45.94531;95958.15;;;;
2022/03/10 05:08:15;;;;;;;9.799998;6.200001;;;;;;;-4.56;45.94531;95958.15;;;;
2022/03/10 05:09:16;;;;;;;9.799998;6.200001;;;;;;;-4.56;45.94531;95958.15;;;;
2022/03/10 05:10:17;;;;;;;9.799998;6.200001;;;;;;;-4.56;45.94531;95958.15;;;;
2022/03/10 05:11:18;;;;;;;9.799998;6.200001;;;;;;;-4.56;45.94531;95958.15;;;;
2022/03/10 05:12:18;;;;;;;9.799998;6.200001;;;;;;;-4.56;45.94531;95958.15;;;;
2022/03/10 05:13:19;;;;;;;9.799998;6.200001;;;;;;;-4.56;45.94531;95958.15;;;;
2022/03/10 05:14:19;;;;;;;9.799998;6.200001;;;;;;;-4.56;45.94531;95958.15;;;;
2022/03/10 05:15:20;;;;;;;9.799998;6.200001;;;;;;;-4.56;45.94531;95958.15;;;;
2022/03/10 05:16:22;;;;;;;7.100001;5.95;;;;;;;-4.6;46.26465;95960.69;;;;
2022/03/10 05:17:23;;;;;;;7.100001;5.95;;;;;;;-4.6;46.26465;95960.69;;;;
2022/03/10 05:18:24;;;;;;;7.100001;5.95;;;;;;;-4.6;46.26465;95960.69;;;;
2022/03/10 05:19:24;;;;;;;7.100001;5.95;;;;;;;-4.6;46.26465;95960.69;;;;
2022/03/10 05:20:25;;;;;;;7.100001;5.95;;;;;;;-4.6;46.26465;95960.69;;;;
2022/03/10 05:21:26;;;;;;;7.100001;5.95;;;;;;;-4.6;46.26465;95960.69;;;;
2022/03/10 05:22:26;;;;;;;7.100001;5.95;;;;;;;-4.6;46.26465;95960.69;;;;
2022/03/10 05:23:41;;;;;;;7.100001;5.95;;;;;;;-4.6;46.26465;95960.69;;;;
2022/03/10 05:24:41;;;;;;;7.100001;5.95;;;;;;;-4.6;46.26465;95960.69;;;;
2022/03/10 05:25:42;;;;;;;7.100001;5.95;;;;;;;-4.6;46.26465;95960.69;;;;
2022/03/10 05:26:42;;;;;;;9;6.299999;;;;;;;-4.65;46.59277;95961.08;;;;
2022/03/10 05:27:43;;;;;;;9;6.299999;;;;;;;-4.65;46.59277;95961.08;;;;
2022/03/10 05:28:45;;;;;;;9;6.299999;;;;;;;-4.65;46.59277;95961.08;;;;
2022/03/10 05:29:45;;;;;;;9;6.299999;;;;;;;-4.65;46.59277;95961.08;;;;
2022/03/10 05:30:47;;;;;;;9;6.299999;;;;;;;-4.65;46.59277;95961.08;;;;
2022/03/10 05:31:48;;;;;;;9;6.299999;;;;;;;-4.65;46.59277;95961.08;;;;
2022/03/10 05:32:48;;;;;;;9;6.299999;;;;;;;-4.65;46.59277;95961.08;;;;
2022/03/10 05:33:49;;;;;;;9;6.299999;;;;;;;-4.65;46.59277;95961.08;;;;
2022/03/10 05:34:50;;;;;;;9;6.299999;;;;;;;-4.65;46.59277;95961.08;;;;
2022/03/10 05:35:50;;;;;;;9;6.299999;;;;;;;-4.65;46.59277;95961.08;;;;
2022/03/10 05:36:51;;;;;;;9;6.299999;;;;;;;-4.65;46.59277;95961.08;;;;
2022/03/10 05:37:52;;;;;;;9.5;6.95;;;;;;;-4.66;46.8916;95948.47;;;;
2022/03/10 05:38:52;;;;;;;9.5;6.95;;;;;;;-4.66;46.8916;95948.47;;;;
2022/03/10 05:39:53;;;;;;;9.5;6.95;;;;;;;-4.66;46.8916;95948.47;;;;
2022/03/10 05:40:53;;;;;;;9.5;6.95;;;;;;;-4.66;46.8916;95948.47;;;;
2022/03/10 05:41:54;;;;;;;9.5;6.95;;;;;;;-4.66;46.8916;95948.47;;;;